createdAt,value
2023-03-17T00:01:25.835Z,100348.63
2023-03-17T00:03:55.327Z,100340.22
2023-03-17T00:06:27.954Z,100349.91
2023-03-17T00:08:58.555Z,100371.56
2023-03-17T00:11:28.826Z,100362.00
2023-03-17T00:13:57.696Z,100366.66
2023-03-17T00:16:27.413Z,100365.34
2023-03-17T00:18:56.417Z,100377.91
2023-03-17T00:21:28.729Z,100375.97
2023-03-17T00:23:59.718Z,100364.72
2023-03-17T00:26:28.636Z,100377.31
2023-03-17T00:28:58.006Z,100382.44
2023-03-17T00:31:27.930Z,100387.13
2023-03-17T00:33:56.518Z,100384.47
2023-03-17T00:36:26.171Z,100387.13
2023-03-17T00:38:54.534Z,100389.63
2023-03-17T00:41:24.476Z,100391.78
2023-03-17T00:43:52.775Z,100390.09
2023-03-17T00:46:24.898Z,100387.00
2023-03-17T00:48:53.251Z,100393.22
2023-03-17T00:51:22.045Z,100389.97
2023-03-17T00:53:50.404Z,100403.84
2023-03-17T00:56:21.238Z,100401.81
2023-03-17T00:58:51.072Z,100401.34
2023-03-17T01:01:20.377Z,100396.44
2023-03-17T01:03:48.766Z,100400.25
2023-03-17T01:06:17.899Z,100400.88
2023-03-17T01:08:46.645Z,100406.88
2023-03-17T01:11:18.968Z,100404.94
2023-03-17T01:13:47.864Z,100404.81
2023-03-17T01:16:18.147Z,100404.81
2023-03-17T01:18:46.644Z,100415.09
2023-03-17T01:21:15.520Z,100421.69
2023-03-17T01:23:43.951Z,100424.88
2023-03-17T01:26:12.836Z,100431.22
2023-03-17T01:28:41.215Z,100436.63
2023-03-17T01:31:09.721Z,100436.03
2023-03-17T01:33:40.869Z,100442.16
2023-03-17T01:36:10.590Z,100445.97
2023-03-17T01:38:38.932Z,100451.94
2023-03-17T01:41:07.379Z,100465.09
2023-03-17T01:43:35.711Z,100465.44
2023-03-17T01:46:29.426Z,100459.09
2023-03-17T01:49:21.931Z,100464.03
2023-03-17T01:52:04.137Z,100471.56
2023-03-17T01:54:36.533Z,100472.41
2023-03-17T01:57:11.248Z,100468.91
2023-03-17T01:59:43.893Z,100470.44
2023-03-17T02:02:14.867Z,100471.91
2023-03-17T02:04:45.296Z,100472.72
2023-03-17T02:07:13.757Z,100462.81
2023-03-17T02:09:42.198Z,100468.19
2023-03-17T02:12:12.059Z,100472.84
2023-03-17T02:14:40.478Z,100487.56
2023-03-17T02:17:09.306Z,100486.38
2023-03-17T02:19:37.655Z,100487.56
2023-03-17T02:22:08.382Z,100492.81
2023-03-17T02:24:39.717Z,100481.94
2023-03-17T02:27:13.063Z,100484.56
2023-03-17T02:29:41.749Z,100488.03
2023-03-17T02:32:11.434Z,100485.97
2023-03-17T02:34:39.835Z,100490.25
2023-03-17T02:37:10.633Z,100502.94
2023-03-17T02:39:38.924Z,100494.00
2023-03-17T02:42:08.199Z,100507.03
2023-03-17T02:44:36.616Z,100505.72
2023-03-17T02:47:04.960Z,100515.81
2023-03-17T02:49:33.752Z,100528.50
2023-03-17T02:52:02.806Z,100521.78
2023-03-17T02:54:32.577Z,100524.38
2023-03-17T02:57:01.339Z,100530.03
2023-03-17T02:59:29.830Z,100537.53
2023-03-17T03:01:58.077Z,100532.13
2023-03-17T03:04:26.469Z,100538.47
2023-03-17T03:06:55.290Z,100541.81
2023-03-17T03:09:24.327Z,100562.03
2023-03-17T03:11:54.134Z,100547.91
2023-03-17T03:14:22.532Z,100574.56
2023-03-17T03:16:51.128Z,100576.13
2023-03-17T03:19:19.370Z,100583.06
2023-03-17T03:21:47.811Z,100585.47
2023-03-17T03:24:16.115Z,100588.81
2023-03-17T03:26:44.359Z,100599.81
2023-03-17T03:29:14.147Z,100606.38
2023-03-17T03:31:42.618Z,100614.66
2023-03-17T03:34:11.149Z,100626.00
2023-03-17T03:36:39.554Z,100623.25
2023-03-17T03:39:08.180Z,100625.28
2023-03-17T03:41:37.434Z,100618.09
2023-03-17T03:44:05.856Z,100621.44
2023-03-17T03:46:38.042Z,100622.78
2023-03-17T03:49:06.537Z,100635.25
2023-03-17T03:51:34.845Z,100631.03
2023-03-17T03:54:03.123Z,100627.69
2023-03-17T03:56:31.516Z,100633.50
2023-03-17T03:58:59.912Z,100640.00
2023-03-17T04:01:28.473Z,100650.19
2023-03-17T04:03:58.309Z,100658.28
2023-03-17T04:06:26.633Z,100649.94
2023-03-17T04:08:57.062Z,100650.19
2023-03-17T04:11:26.549Z,100658.09
2023-03-17T04:13:55.905Z,100650.56
2023-03-17T04:16:24.396Z,100664.91
2023-03-17T04:18:52.833Z,100658.56
2023-03-17T04:21:22.485Z,100663.97
2023-03-17T04:23:50.815Z,100687.72
2023-03-17T04:26:19.335Z,100696.16
2023-03-17T04:28:47.814Z,100687.22
2023-03-17T04:31:16.406Z,100690.66
2023-03-17T04:33:44.816Z,100707.78
2023-03-17T04:36:19.448Z,100710.13
2023-03-17T04:38:49.346Z,100709.13
2023-03-17T04:41:17.654Z,100704.63
2023-03-17T04:43:46.271Z,100709.97
2023-03-17T04:46:16.569Z,100710.97
2023-03-17T04:48:45.049Z,100714.63
2023-03-17T04:51:13.424Z,100726.56
2023-03-17T04:53:41.863Z,100715.41
2023-03-17T04:56:11.909Z,100725.09
2023-03-17T04:58:40.443Z,100728.22
2023-03-17T05:01:08.953Z,100724.91
2023-03-17T05:03:37.387Z,100728.47
2023-03-17T05:06:07.215Z,100736.47
2023-03-17T05:08:35.647Z,100749.47
2023-03-17T05:11:03.964Z,100755.16
2023-03-17T05:13:33.763Z,100749.78
2023-03-17T05:16:02.482Z,100752.31
2023-03-17T05:18:31.790Z,100761.13
2023-03-17T05:21:00.059Z,100766.22
2023-03-17T05:23:28.528Z,100759.72
2023-03-17T05:25:56.991Z,100757.75
2023-03-17T05:28:25.269Z,100759.44
2023-03-17T05:30:55.426Z,100772.41
2023-03-17T05:33:23.812Z,100776.84
2023-03-17T05:35:54.198Z,100779.91
2023-03-17T05:38:22.576Z,100786.16
2023-03-17T05:40:52.226Z,100781.41
2023-03-17T05:43:20.718Z,100796.19
2023-03-17T05:45:50.828Z,100800.16
2023-03-17T05:48:20.561Z,100798.63
2023-03-17T05:50:49.377Z,100800.66
2023-03-17T05:53:17.816Z,100810.66
2023-03-17T05:55:46.314Z,100815.66
2023-03-17T05:58:15.837Z,100820.16
2023-03-17T06:00:44.358Z,100819.28
2023-03-17T06:03:12.759Z,100833.63
2023-03-17T06:05:42.570Z,100833.25
2023-03-17T06:08:11.081Z,100854.53
2023-03-17T06:10:39.325Z,100860.72
2023-03-17T06:13:07.607Z,100859.13
2023-03-17T06:15:37.141Z,100853.44
2023-03-17T06:18:06.394Z,100855.19
2023-03-17T06:20:35.143Z,100850.72
2023-03-17T06:23:06.078Z,100872.28
2023-03-17T06:25:35.077Z,100874.44
2023-03-17T06:28:04.072Z,100881.22
2023-03-17T06:30:33.177Z,100882.25
2023-03-17T06:33:02.231Z,100881.66
2023-03-17T06:35:31.397Z,100876.59
2023-03-17T06:38:00.007Z,100873.78
2023-03-17T06:40:30.138Z,100869.91
2023-03-17T06:42:58.470Z,100873.16
2023-03-17T06:45:27.095Z,100872.66
2023-03-17T06:47:55.452Z,100874.56
2023-03-17T06:50:23.783Z,100880.28
2023-03-17T06:52:52.636Z,100879.16
2023-03-17T06:55:21.637Z,100874.34
2023-03-17T06:57:51.536Z,100885.88
2023-03-17T07:00:21.282Z,100887.44
2023-03-17T07:02:51.363Z,100893.44
